createdAt,value
2022-08-03T00:00:26.910Z,99.90
2022-08-03T00:02:53.676Z,99.90
2022-08-03T00:05:20.519Z,99.90
2022-08-03T00:07:48.539Z,99.90
2022-08-03T00:10:16.502Z,99.90
2022-08-03T00:12:43.125Z,99.90
2022-08-03T00:15:15.265Z,99.90
2022-08-03T00:17:53.213Z,99.90
2022-08-03T00:20:24.010Z,99.90
2022-08-03T00:22:50.873Z,99.90
2022-08-03T00:25:17.773Z,99.90
2022-08-03T00:27:44.375Z,99.90
2022-08-03T00:30:11.401Z,99.90
2022-08-03T00:54:50.539Z,99.90
2022-08-03T00:57:17.178Z,99.90
2022-08-03T00:59:43.875Z,99.90
2022-08-03T01:02:10.575Z,99.90
2022-08-03T01:04:37.245Z,99.90
2022-08-03T01:26:48.991Z,99.90
2022-08-03T01:29:34.495Z,99.90
2022-08-03T01:32:58.121Z,99.90
2022-08-03T01:34:52.452Z,99.90
2022-08-03T01:37:24.532Z,99.90
2022-08-03T01:39:51.980Z,99.90
2022-08-03T01:42:19.717Z,99.90
2022-08-03T03:06:30.730Z,99.90
2022-08-03T03:18:48.629Z,99.90
2022-08-03T03:21:17.876Z,99.90
2022-08-03T03:23:45.640Z,99.90
2022-08-03T03:26:13.500Z,99.90
2022-08-03T03:28:40.203Z,99.90
2022-08-03T03:31:07.612Z,99.90
2022-08-03T03:38:28.818Z,99.90
2022-08-03T03:40:55.741Z,99.90
2022-08-03T03:43:23.434Z,99.90
2022-08-03T03:45:51.591Z,99.90
2022-08-03T03:48:18.647Z,99.90
2022-08-03T03:50:45.650Z,99.90
2022-08-03T03:53:13.189Z,99.90
2022-08-03T03:55:58.996Z,99.90
2022-08-03T03:58:27.001Z,99.90
2022-08-03T04:00:54.127Z,99.90
2022-08-03T04:03:20.910Z,99.90
2022-08-03T04:06:06.461Z,99.90
2022-08-03T04:08:51.905Z,99.90
2022-08-03T04:11:29.990Z,99.90
2022-08-03T04:14:05.195Z,99.90
2022-08-03T04:16:33.688Z,99.90
2022-08-03T04:19:08.559Z,99.90
2022-08-03T04:21:38.018Z,99.90
2022-08-03T04:24:07.514Z,99.90
2022-08-03T04:26:36.282Z,99.90
2022-08-03T04:29:04.004Z,99.90
2022-08-03T04:31:30.753Z,99.90
2022-08-03T04:33:57.691Z,99.90
2022-08-03T04:36:25.948Z,99.90
2022-08-03T04:42:07.946Z,99.90
2022-08-03T04:48:09.355Z,99.90
2022-08-03T04:50:36.115Z,99.90
2022-08-03T04:53:03.451Z,99.90
2022-08-03T04:55:30.884Z,99.90
2022-08-03T04:57:58.162Z,99.90
2022-08-03T05:00:25.083Z,99.90
2022-08-03T05:02:51.794Z,99.90
2022-08-03T05:05:18.478Z,99.90
2022-08-03T05:07:45.897Z,99.90
2022-08-03T05:10:15.831Z,99.90
2022-08-03T05:12:44.024Z,99.90
2022-08-03T05:15:10.762Z,99.90
2022-08-03T05:32:20.598Z,99.90
2022-08-03T05:34:47.400Z,99.90
2022-08-03T05:37:14.055Z,99.90
2022-08-03T05:39:40.666Z,99.90
2022-08-03T05:42:07.408Z,99.90
2022-08-03T05:44:34.179Z,99.90
2022-08-03T05:47:00.833Z,99.90
2022-08-03T05:49:27.563Z,99.90
2022-08-03T05:52:00.483Z,99.90
2022-08-03T05:54:55.445Z,99.90
2022-08-03T06:10:34.064Z,99.90
2022-08-03T06:57:00.108Z,99.90
2022-08-03T07:00:08.292Z,99.90
2022-08-03T07:02:18.981Z,99.90
2022-08-03T07:04:47.078Z,99.90
2022-08-03T07:15:38.340Z,99.90
2022-08-03T07:30:25.299Z,99.90
2022-08-03T07:35:24.814Z,99.90
2022-08-03T07:37:54.412Z,99.90
2022-08-03T07:40:22.149Z,99.90
2022-08-03T07:42:53.463Z,99.90
2022-08-03T07:45:23.390Z,99.90
2022-08-03T07:47:53.505Z,99.90
2022-08-03T07:50:20.878Z,99.90
2022-08-03T07:52:52.078Z,99.90
2022-08-03T07:55:19.910Z,99.90
2022-08-03T08:05:09.138Z,99.90
2022-08-03T08:10:03.271Z,99.90
2022-08-03T08:12:30.068Z,99.90
2022-08-03T08:14:56.789Z,99.90
2022-08-03T08:17:23.411Z,99.90
2022-08-03T08:19:51.534Z,99.90
2022-08-03T08:27:24.042Z,99.90
2022-08-03T08:32:21.997Z,99.90
2022-08-03T08:34:48.627Z,99.90
2022-08-03T08:37:15.323Z,99.90
2022-08-03T08:39:42.059Z,99.90
2022-08-03T08:42:09.896Z,99.90
2022-08-03T08:59:21.907Z,99.90
2022-08-03T09:04:31.225Z,99.90
2022-08-03T09:12:41.630Z,99.90
2022-08-03T09:15:19.787Z,99.90
2022-08-03T09:17:50.712Z,99.90
2022-08-03T09:23:51.532Z,99.90
2022-08-03T09:58:48.059Z,99.90
2022-08-03T10:01:23.665Z,99.90
2022-08-03T10:04:03.966Z,99.90
2022-08-03T10:06:31.773Z,99.90
2022-08-03T10:09:15.014Z,99.90
2022-08-03T10:11:42.679Z,99.90
2022-08-03T10:14:10.429Z,99.90
2022-08-03T10:16:38.203Z,99.90
2022-08-03T10:19:05.560Z,99.90
2022-08-03T10:21:37.313Z,99.90
2022-08-03T10:24:07.372Z,99.90
2022-08-03T10:31:35.069Z,99.90
2022-08-03T10:34:02.211Z,99.90
2022-08-03T11:03:42.904Z,99.90
2022-08-03T11:52:31.756Z,70.20
2022-08-03T11:59:13.165Z,93.00
2022-08-03T12:23:37.935Z,72.40
2022-08-03T12:26:16.404Z,69.80
2022-08-03T12:28:50.699Z,68.30
2022-08-03T12:31:17.697Z,85.20
2022-08-03T12:44:36.673Z,68.40
2022-08-03T13:50:43.175Z,55.50
2022-08-03T13:56:28.895Z,51.30
2022-08-03T14:02:46.074Z,52.40
2022-08-03T14:05:17.938Z,53.90
2022-08-03T14:13:42.715Z,52.70
2022-08-03T14:26:30.863Z,52.00
2022-08-03T15:28:20.655Z,49.60
2022-08-03T15:30:47.345Z,50.60
2022-08-03T15:33:14.012Z,49.70
2022-08-03T15:35:41.633Z,49.10
2022-08-03T15:38:09.574Z,49.20
2022-08-03T15:40:36.586Z,49.10
2022-08-03T15:43:03.278Z,48.30
2022-08-03T15:45:36.286Z,48.00
2022-08-03T15:48:04.695Z,47.90
2022-08-03T15:50:31.347Z,48.00
2022-08-03T15:52:57.991Z,47.60
2022-08-03T15:59:09.863Z,47.90
2022-08-03T16:00:38.727Z,48.50
2022-08-03T16:03:05.595Z,48.70
2022-08-03T16:05:32.317Z,48.10
2022-08-03T16:08:03.650Z,48.60
2022-08-03T16:10:31.805Z,48.70
2022-08-03T16:13:01.467Z,48.70
2022-08-03T16:15:28.126Z,47.50
2022-08-03T16:17:55.078Z,48.00
2022-08-03T16:20:34.142Z,47.50
2022-08-03T16:23:02.532Z,47.90
2022-08-03T16:25:49.043Z,47.50
2022-08-03T16:28:16.393Z,48.30
2022-08-03T16:30:44.891Z,47.90
2022-08-03T16:33:16.948Z,47.30
2022-08-03T16:35:44.809Z,47.50
2022-08-03T22:39:46.161Z,99.90
2022-08-03T22:46:06.910Z,99.90
2022-08-03T22:48:45.665Z,99.90
2022-08-03T22:51:42.492Z,99.90
2022-08-03T22:54:18.247Z,99.90
2022-08-03T23:00:40.296Z,99.90
2022-08-03T23:06:01.377Z,99.90
2022-08-03T23:08:25.721Z,99.90
2022-08-03T23:10:53.643Z,99.90
2022-08-03T23:13:23.019Z,99.90
2022-08-03T23:15:51.655Z,99.90
2022-08-03T23:18:19.192Z,99.90
2022-08-03T23:20:46.231Z,99.90
2022-08-03T23:23:16.696Z,99.90
2022-08-03T23:25:47.469Z,99.90
2022-08-03T23:28:16.190Z,99.90
2022-08-03T23:30:44.076Z,99.90
2022-08-03T23:33:11.993Z,99.90
2022-08-03T23:38:44.686Z,99.90
2022-08-03T23:41:12.572Z,99.90
2022-08-03T23:51:23.530Z,99.90
2022-08-03T23:54:08.971Z,99.90
2022-08-03T23:56:54.308Z,99.90
2022-08-03T23:59:27.825Z,99.90
